sensor_id;sensor_type;location;lat;lon;timestamp;P1;durP1;ratioP1;P2;durP2;ratioP2
4603;SDS011;2314;48.272;11.562;2023-03-15T00:00:52;124.87;;;3.60;;
4603;SDS011;2314;48.272;11.562;2023-03-15T00:03:20;127.30;;;3.40;;
4603;SDS011;2314;48.272;11.562;2023-03-15T00:05:49;126.67;;;3.50;;
4603;SDS011;2314;48.272;11.562;2023-03-15T00:08:17;125.90;;;3.20;;
4603;SDS011;2314;48.272;11.562;2023-03-15T00:10:47;124.70;;;3.43;;
4603;SDS011;2314;48.272;11.562;2023-03-15T00:13:14;126.77;;;3.37;;
4603;SDS011;2314;48.272;11.562;2023-03-15T00:15:45;126.97;;;3.37;;
4603;SDS011;2314;48.272;11.562;2023-03-15T00:18:15;130.63;;;3.60;;
4603;SDS011;2314;48.272;11.562;2023-03-15T00:20:43;127.30;;;3.60;;
4603;SDS011;2314;48.272;11.562;2023-03-15T00:23:12;129.57;;;4.30;;
4603;SDS011;2314;48.272;11.562;2023-03-15T00:25:42;127.57;;;3.77;;
4603;SDS011;2314;48.272;11.562;2023-03-15T00:28:11;126.67;;;3.97;;
4603;SDS011;2314;48.272;11.562;2023-03-15T00:30:39;128.50;;;4.10;;
4603;SDS011;2314;48.272;11.562;2023-03-15T00:33:06;126.17;;;4.07;;
4603;SDS011;2314;48.272;11.562;2023-03-15T00:35:36;127.10;;;4.47;;
4603;SDS011;2314;48.272;11.562;2023-03-15T00:38:06;129.97;;;4.30;;
4603;SDS011;2314;48.272;11.562;2023-03-15T00:40:34;126.20;;;3.73;;
4603;SDS011;2314;48.272;11.562;2023-03-15T00:43:02;126.43;;;4.03;;
4603;SDS011;2314;48.272;11.562;2023-03-15T00:45:31;131.80;;;4.80;;
4603;SDS011;2314;48.272;11.562;2023-03-15T00:47:58;127.40;;;4.37;;
4603;SDS011;2314;48.272;11.562;2023-03-15T00:50:25;126.27;;;4.10;;
4603;SDS011;2314;48.272;11.562;2023-03-15T00:52:52;129.40;;;4.20;;
4603;SDS011;2314;48.272;11.562;2023-03-15T00:55:19;127.57;;;3.90;;
4603;SDS011;2314;48.272;11.562;2023-03-15T00:57:46;132.90;;;4.50;;
4603;SDS011;2314;48.272;11.562;2023-03-15T01:00:14;130.53;;;4.90;;
4603;SDS011;2314;48.272;11.562;2023-03-15T01:02:49;126.47;;;3.70;;
4603;SDS011;2314;48.272;11.562;2023-03-15T01:05:17;126.87;;;3.90;;
4603;SDS011;2314;48.272;11.562;2023-03-15T01:07:45;127.87;;;3.83;;
4603;SDS011;2314;48.272;11.562;2023-03-15T01:10:13;127.17;;;4.10;;
4603;SDS011;2314;48.272;11.562;2023-03-15T01:12:41;128.00;;;4.57;;
4603;SDS011;2314;48.272;11.562;2023-03-15T01:15:09;126.20;;;3.70;;
4603;SDS011;2314;48.272;11.562;2023-03-15T01:17:39;127.50;;;3.90;;
4603;SDS011;2314;48.272;11.562;2023-03-15T01:20:09;125.70;;;3.67;;
4603;SDS011;2314;48.272;11.562;2023-03-15T01:22:38;125.87;;;3.60;;
4603;SDS011;2314;48.272;11.562;2023-03-15T01:25:05;126.57;;;3.80;;
4603;SDS011;2314;48.272;11.562;2023-03-15T01:27:34;126.87;;;3.63;;
4603;SDS011;2314;48.272;11.562;2023-03-15T01:30:01;127.93;;;4.20;;
4603;SDS011;2314;48.272;11.562;2023-03-15T01:32:29;126.30;;;3.60;;
4603;SDS011;2314;48.272;11.562;2023-03-15T01:34:56;128.00;;;3.90;;
4603;SDS011;2314;48.272;11.562;2023-03-15T01:37:25;131.17;;;4.10;;
4603;SDS011;2314;48.272;11.562;2023-03-15T01:39:52;128.50;;;4.20;;
4603;SDS011;2314;48.272;11.562;2023-03-15T01:42:20;129.77;;;4.30;;
4603;SDS011;2314;48.272;11.562;2023-03-15T01:44:48;126.90;;;3.87;;
4603;SDS011;2314;48.272;11.562;2023-03-15T01:47:21;127.00;;;3.90;;
4603;SDS011;2314;48.272;11.562;2023-03-15T01:49:51;128.60;;;4.27;;
4603;SDS011;2314;48.272;11.562;2023-03-15T01:52:25;126.77;;;4.30;;
4603;SDS011;2314;48.272;11.562;2023-03-15T01:54:59;130.27;;;4.30;;
4603;SDS011;2314;48.272;11.562;2023-03-15T01:57:31;129.67;;;4.60;;
4603;SDS011;2314;48.272;11.562;2023-03-15T02:00:03;127.70;;;4.47;;
4603;SDS011;2314;48.272;11.562;2023-03-15T02:02:36;126.40;;;3.90;;
4603;SDS011;2314;48.272;11.562;2023-03-15T02:05:10;127.77;;;4.47;;
4603;SDS011;2314;48.272;11.562;2023-03-15T02:07:45;127.33;;;4.10;;
4603;SDS011;2314;48.272;11.562;2023-03-15T02:10:15;127.50;;;4.20;;
4603;SDS011;2314;48.272;11.562;2023-03-15T02:12:47;127.00;;;4.00;;
4603;SDS011;2314;48.272;11.562;2023-03-15T02:15:16;128.00;;;4.13;;
4603;SDS011;2314;48.272;11.562;2023-03-15T02:17:45;129.37;;;4.07;;
4603;SDS011;2314;48.272;11.562;2023-03-15T02:20:20;127.40;;;4.20;;
4603;SDS011;2314;48.272;11.562;2023-03-15T02:22:59;128.40;;;4.50;;
4603;SDS011;2314;48.272;11.562;2023-03-15T02:25:31;128.67;;;4.27;;
4603;SDS011;2314;48.272;11.562;2023-03-15T02:28:09;128.20;;;4.30;;
4603;SDS011;2314;48.272;11.562;2023-03-15T02:30:39;129.17;;;4.23;;
4603;SDS011;2314;48.272;11.562;2023-03-15T02:33:07;128.30;;;4.30;;
4603;SDS011;2314;48.272;11.562;2023-03-15T02:35:40;127.93;;;4.60;;
4603;SDS011;2314;48.272;11.562;2023-03-15T02:38:07;127.77;;;4.30;;
4603;SDS011;2314;48.272;11.562;2023-03-15T02:40:34;127.60;;;4.37;;
4603;SDS011;2314;48.272;11.562;2023-03-15T02:43:04;128.17;;;4.53;;
4603;SDS011;2314;48.272;11.562;2023-03-15T02:45:36;127.80;;;4.50;;
4603;SDS011;2314;48.272;11.562;2023-03-15T02:48:04;128.77;;;4.73;;
4603;SDS011;2314;48.272;11.562;2023-03-15T02:50:33;127.97;;;4.30;;
4603;SDS011;2314;48.272;11.562;2023-03-15T02:53:00;128.00;;;4.30;;
4603;SDS011;2314;48.272;11.562;2023-03-15T02:55:27;131.87;;;4.50;;
4603;SDS011;2314;48.272;11.562;2023-03-15T02:57:56;128.33;;;4.50;;
4603;SDS011;2314;48.272;11.562;2023-03-15T03:00:25;128.47;;;4.63;;
4603;SDS011;2314;48.272;11.562;2023-03-15T03:02:52;129.77;;;5.10;;
4603;SDS011;2314;48.272;11.562;2023-03-15T03:05:22;131.80;;;4.50;;
4603;SDS011;2314;48.272;11.562;2023-03-15T03:07:49;139.50;;;5.40;;
4603;SDS011;2314;48.272;11.562;2023-03-15T03:10:17;132.77;;;4.60;;
4603;SDS011;2314;48.272;11.562;2023-03-15T03:12:45;127.63;;;4.30;;
4603;SDS011;2314;48.272;11.562;2023-03-15T03:15:13;130.87;;;4.77;;
4603;SDS011;2314;48.272;11.562;2023-03-15T03:17:43;129.50;;;4.60;;
4603;SDS011;2314;48.272;11.562;2023-03-15T03:20:11;136.27;;;4.90;;
4603;SDS011;2314;48.272;11.562;2023-03-15T03:22:40;131.27;;;4.90;;
4603;SDS011;2314;48.272;11.562;2023-03-15T03:25:09;130.20;;;4.60;;
4603;SDS011;2314;48.272;11.562;2023-03-15T03:27:37;136.37;;;4.63;;
4603;SDS011;2314;48.272;11.562;2023-03-15T03:30:04;129.37;;;4.47;;
4603;SDS011;2314;48.272;11.562;2023-03-15T03:32:35;131.33;;;4.57;;
4603;SDS011;2314;48.272;11.562;2023-03-15T03:35:04;127.37;;;4.30;;
4603;SDS011;2314;48.272;11.562;2023-03-15T03:37:32;128.60;;;4.53;;
4603;SDS011;2314;48.272;11.562;2023-03-15T03:40:00;127.60;;;4.03;;
4603;SDS011;2314;48.272;11.562;2023-03-15T03:42:32;131.40;;;4.60;;
4603;SDS011;2314;48.272;11.562;2023-03-15T03:44:59;127.80;;;4.73;;
4603;SDS011;2314;48.272;11.562;2023-03-15T03:47:26;126.97;;;4.40;;
4603;SDS011;2314;48.272;11.562;2023-03-15T03:49:53;128.77;;;4.50;;
4603;SDS011;2314;48.272;11.562;2023-03-15T03:52:21;129.00;;;4.30;;
4603;SDS011;2314;48.272;11.562;2023-03-15T03:54:48;128.63;;;4.70;;
4603;SDS011;2314;48.272;11.562;2023-03-15T03:57:15;129.07;;;4.80;;
4603;SDS011;2314;48.272;11.562;2023-03-15T03:59:42;133.47;;;4.47;;
4603;SDS011;2314;48.272;11.562;2023-03-15T04:02:11;128.10;;;4.30;;
4603;SDS011;2314;48.272;11.562;2023-03-15T04:04:41;129.30;;;4.30;;
4603;SDS011;2314;48.272;11.562;2023-03-15T04:07:14;128.40;;;4.40;;
4603;SDS011;2314;48.272;11.562;2023-03-15T04:09:42;130.27;;;4.20;;
4603;SDS011;2314;48.272;11.562;2023-03-15T04:12:09;129.47;;;4.23;;
4603;SDS011;2314;48.272;11.562;2023-03-15T04:14:36;127.20;;;4.00;;
4603;SDS011;2314;48.272;11.562;2023-03-15T04:17:03;128.67;;;4.00;;
4603;SDS011;2314;48.272;11.562;2023-03-15T04:19:32;129.27;;;4.90;;
4603;SDS011;2314;48.272;11.562;2023-03-15T04:22:01;130.00;;;4.20;;
4603;SDS011;2314;48.272;11.562;2023-03-15T04:24:31;128.77;;;4.13;;
4603;SDS011;2314;48.272;11.562;2023-03-15T04:27:01;130.37;;;4.33;;
4603;SDS011;2314;48.272;11.562;2023-03-15T04:29:28;126.80;;;4.07;;
4603;SDS011;2314;48.272;11.562;2023-03-15T04:31:55;130.87;;;4.20;;
4603;SDS011;2314;48.272;11.562;2023-03-15T04:34:26;129.60;;;4.40;;
4603;SDS011;2314;48.272;11.562;2023-03-15T04:36:53;128.07;;;4.00;;
4603;SDS011;2314;48.272;11.562;2023-03-15T04:39:21;126.87;;;4.10;;
4603;SDS011;2314;48.272;11.562;2023-03-15T04:41:49;127.67;;;4.50;;
4603;SDS011;2314;48.272;11.562;2023-03-15T04:44:17;126.67;;;4.00;;
4603;SDS011;2314;48.272;11.562;2023-03-15T04:46:44;133.60;;;4.37;;
4603;SDS011;2314;48.272;11.562;2023-03-15T04:49:11;132.70;;;4.63;;
4603;SDS011;2314;48.272;11.562;2023-03-15T04:51:38;127.90;;;4.30;;
4603;SDS011;2314;48.272;11.562;2023-03-15T04:54:05;131.07;;;4.70;;
4603;SDS011;2314;48.272;11.562;2023-03-15T04:56:32;129.33;;;4.60;;
4603;SDS011;2314;48.272;11.562;2023-03-15T04:59:00;143.03;;;4.50;;
4603;SDS011;2314;48.272;11.562;2023-03-15T05:01:30;131.17;;;4.73;;
4603;SDS011;2314;48.272;11.562;2023-03-15T05:03:57;131.53;;;4.43;;
4603;SDS011;2314;48.272;11.562;2023-03-15T05:06:24;132.73;;;5.00;;
4603;SDS011;2314;48.272;11.562;2023-03-15T05:08:52;130.20;;;5.03;;
4603;SDS011;2314;48.272;11.562;2023-03-15T05:11:19;128.33;;;4.73;;
4603;SDS011;2314;48.272;11.562;2023-03-15T05:13:47;134.47;;;4.97;;
4603;SDS011;2314;48.272;11.562;2023-03-15T05:16:14;129.00;;;4.73;;
4603;SDS011;2314;48.272;11.562;2023-03-15T05:18:42;135.40;;;4.80;;
4603;SDS011;2314;48.272;11.562;2023-03-15T05:21:10;130.20;;;4.90;;
4603;SDS011;2314;48.272;11.562;2023-03-15T05:23:37;134.00;;;5.00;;
4603;SDS011;2314;48.272;11.562;2023-03-15T05:26:04;129.57;;;4.80;;
4603;SDS011;2314;48.272;11.562;2023-03-15T05:28:31;138.70;;;5.20;;
4603;SDS011;2314;48.272;11.562;2023-03-15T05:30:58;128.67;;;4.60;;
4603;SDS011;2314;48.272;11.562;2023-03-15T05:33:26;128.87;;;5.00;;
4603;SDS011;2314;48.272;11.562;2023-03-15T05:35:55;129.93;;;5.27;;
4603;SDS011;2314;48.272;11.562;2023-03-15T05:38:23;131.97;;;5.57;;
4603;SDS011;2314;48.272;11.562;2023-03-15T05:40:51;133.70;;;4.70;;
4603;SDS011;2314;48.272;11.562;2023-03-15T05:43:18;133.67;;;5.60;;
4603;SDS011;2314;48.272;11.562;2023-03-15T05:45:46;132.03;;;5.57;;
4603;SDS011;2314;48.272;11.562;2023-03-15T05:48:14;130.20;;;5.50;;
4603;SDS011;2314;48.272;11.562;2023-03-15T05:50:41;131.60;;;5.27;;
4603;SDS011;2314;48.272;11.562;2023-03-15T05:53:10;135.07;;;5.43;;
4603;SDS011;2314;48.272;11.562;2023-03-15T05:55:36;130.67;;;5.93;;
4603;SDS011;2314;48.272;11.562;2023-03-15T05:58:04;139.37;;;5.87;;
4603;SDS011;2314;48.272;11.562;2023-03-15T06:00:31;130.10;;;5.40;;
4603;SDS011;2314;48.272;11.562;2023-03-15T06:02:58;133.07;;;5.70;;
4603;SDS011;2314;48.272;11.562;2023-03-15T06:05:25;134.10;;;5.50;;
4603;SDS011;2314;48.272;11.562;2023-03-15T06:07:52;137.20;;;5.90;;
4603;SDS011;2314;48.272;11.562;2023-03-15T06:10:20;133.27;;;5.50;;
4603;SDS011;2314;48.272;11.562;2023-03-15T06:12:47;132.70;;;5.53;;
4603;SDS011;2314;48.272;11.562;2023-03-15T06:15:16;131.20;;;6.10;;
4603;SDS011;2314;48.272;11.562;2023-03-15T06:17:43;131.50;;;5.40;;
4603;SDS011;2314;48.272;11.562;2023-03-15T06:20:11;134.23;;;5.60;;
4603;SDS011;2314;48.272;11.562;2023-03-15T06:22:38;128.40;;;5.30;;
4603;SDS011;2314;48.272;11.562;2023-03-15T06:25:06;167.43;;;6.17;;
4603;SDS011;2314;48.272;11.562;2023-03-15T06:27:35;131.63;;;5.73;;
4603;SDS011;2314;48.272;11.562;2023-03-15T06:30:03;133.67;;;6.03;;
4603;SDS011;2314;48.272;11.562;2023-03-15T06:32:31;136.00;;;6.83;;
4603;SDS011;2314;48.272;11.562;2023-03-15T06:34:58;135.27;;;6.37;;
4603;SDS011;2314;48.272;11.562;2023-03-15T06:37:25;131.00;;;5.80;;
4603;SDS011;2314;48.272;11.562;2023-03-15T06:39:52;138.50;;;5.63;;
4603;SDS011;2314;48.272;11.562;2023-03-15T06:42:19;132.97;;;6.13;;
4603;SDS011;2314;48.272;11.562;2023-03-15T06:44:47;130.63;;;5.93;;
4603;SDS011;2314;48.272;11.562;2023-03-15T06:47:14;133.53;;;5.83;;
4603;SDS011;2314;48.272;11.562;2023-03-15T06:49:41;130.43;;;5.87;;
4603;SDS011;2314;48.272;11.562;2023-03-15T06:52:08;135.57;;;6.70;;
4603;SDS011;2314;48.272;11.562;2023-03-15T06:54:35;139.07;;;6.33;;
4603;SDS011;2314;48.272;11.562;2023-03-15T06:57:03;133.93;;;6.83;;
4603;SDS011;2314;48.272;11.562;2023-03-15T06:59:30;139.87;;;7.33;;
4603;SDS011;2314;48.272;11.562;2023-03-15T07:01:58;134.13;;;7.33;;
4603;SDS011;2314;48.272;11.562;2023-03-15T07:04:25;132.17;;;6.57;;
4603;SDS011;2314;48.272;11.562;2023-03-15T07:06:53;132.07;;;6.70;;
4603;SDS011;2314;48.272;11.562;2023-03-15T07:09:20;129.33;;;5.90;;
4603;SDS011;2314;48.272;11.562;2023-03-15T07:11:47;132.47;;;6.67;;
4603;SDS011;2314;48.272;11.562;2023-03-15T07:14:14;132.77;;;6.60;;
4603;SDS011;2314;48.272;11.562;2023-03-15T07:16:41;137.30;;;6.67;;
4603;SDS011;2314;48.272;11.562;2023-03-15T07:19:09;134.87;;;7.23;;
4603;SDS011;2314;48.272;11.562;2023-03-15T07:21:36;135.73;;;8.87;;
4603;SDS011;2314;48.272;11.562;2023-03-15T07:24:04;132.33;;;6.73;;
4603;SDS011;2314;48.272;11.562;2023-03-15T07:26:31;135.03;;;7.20;;
4603;SDS011;2314;48.272;11.562;2023-03-15T07:28:58;129.83;;;7.50;;
4603;SDS011;2314;48.272;11.562;2023-03-15T07:31:25;133.83;;;7.73;;
4603;SDS011;2314;48.272;11.562;2023-03-15T07:33:52;131.33;;;7.63;;
4603;SDS011;2314;48.272;11.562;2023-03-15T07:36:21;132.80;;;7.80;;
4603;SDS011;2314;48.272;11.562;2023-03-15T07:38:48;131.17;;;8.00;;
4603;SDS011;2314;48.272;11.562;2023-03-15T07:41:15;129.37;;;7.50;;
4603;SDS011;2314;48.272;11.562;2023-03-15T07:43:42;136.23;;;7.37;;
4603;SDS011;2314;48.272;11.562;2023-03-15T07:46:08;127.57;;;6.43;;
4603;SDS011;2314;48.272;11.562;2023-03-15T07:48:35;128.77;;;7.00;;
4603;SDS011;2314;48.272;11.562;2023-03-15T07:51:03;131.73;;;6.17;;
4603;SDS011;2314;48.272;11.562;2023-03-15T07:53:31;126.87;;;6.60;;
4603;SDS011;2314;48.272;11.562;2023-03-15T07:55:58;125.23;;;6.40;;
4603;SDS011;2314;48.272;11.562;2023-03-15T07:58:26;130.77;;;6.27;;
4603;SDS011;2314;48.272;11.562;2023-03-15T08:00:53;130.13;;;6.23;;
4603;SDS011;2314;48.272;11.562;2023-03-15T08:03:21;134.13;;;6.80;;
4603;SDS011;2314;48.272;11.562;2023-03-15T08:05:49;129.00;;;7.03;;
4603;SDS011;2314;48.272;11.562;2023-03-15T08:08:16;127.30;;;6.47;;
4603;SDS011;2314;48.272;11.562;2023-03-15T08:10:44;128.67;;;6.40;;
4603;SDS011;2314;48.272;11.562;2023-03-15T08:13:11;129.83;;;6.90;;
4603;SDS011;2314;48.272;11.562;2023-03-15T08:15:38;132.87;;;7.00;;
4603;SDS011;2314;48.272;11.562;2023-03-15T08:18:06;137.30;;;7.23;;
4603;SDS011;2314;48.272;11.562;2023-03-15T08:20:33;132.67;;;7.50;;
4603;SDS011;2314;48.272;11.562;2023-03-15T08:22:59;130.73;;;7.43;;
4603;SDS011;2314;48.272;11.562;2023-03-15T08:25:27;135.83;;;8.03;;
4603;SDS011;2314;48.272;11.562;2023-03-15T08:27:56;131.43;;;7.03;;
4603;SDS011;2314;48.272;11.562;2023-03-15T08:30:23;136.67;;;7.73;;
4603;SDS011;2314;48.272;11.562;2023-03-15T08:32:50;132.37;;;7.40;;
4603;SDS011;2314;48.272;11.562;2023-03-15T08:35:18;131.03;;;6.70;;
4603;SDS011;2314;48.272;11.562;2023-03-15T08:37:47;137.40;;;7.40;;
4603;SDS011;2314;48.272;11.562;2023-03-15T08:40:16;127.37;;;6.70;;
4603;SDS011;2314;48.272;11.562;2023-03-15T08:42:48;131.30;;;6.30;;
4603;SDS011;2314;48.272;11.562;2023-03-15T08:45:17;132.93;;;6.20;;
4603;SDS011;2314;48.272;11.562;2023-03-15T08:47:45;131.00;;;6.33;;
4603;SDS011;2314;48.272;11.562;2023-03-15T08:50:12;132.23;;;6.50;;
4603;SDS011;2314;48.272;11.562;2023-03-15T08:52:43;128.80;;;6.90;;
4603;SDS011;2314;48.272;11.562;2023-03-15T08:55:10;132.47;;;6.00;;
4603;SDS011;2314;48.272;11.562;2023-03-15T08:57:38;128.60;;;6.93;;
4603;SDS011;2314;48.272;11.562;2023-03-15T09:00:06;131.53;;;6.60;;
4603;SDS011;2314;48.272;11.562;2023-03-15T09:02:36;137.17;;;6.60;;
4603;SDS011;2314;48.272;11.562;2023-03-15T09:05:03;130.67;;;6.60;;
4603;SDS011;2314;48.272;11.562;2023-03-15T09:07:31;137.70;;;6.53;;
4603;SDS011;2314;48.272;11.562;2023-03-15T09:09:58;130.07;;;6.13;;
4603;SDS011;2314;48.272;11.562;2023-03-15T09:12:25;127.10;;;5.67;;
4603;SDS011;2314;48.272;11.562;2023-03-15T09:14:52;138.83;;;6.10;;
4603;SDS011;2314;48.272;11.562;2023-03-15T09:17:19;124.50;;;5.30;;
4603;SDS011;2314;48.272;11.562;2023-03-15T09:19:48;126.47;;;5.03;;
4603;SDS011;2314;48.272;11.562;2023-03-15T09:22:16;125.13;;;4.80;;
4603;SDS011;2314;48.272;11.562;2023-03-15T09:24:43;135.80;;;5.63;;
4603;SDS011;2314;48.272;11.562;2023-03-15T09:27:10;129.47;;;5.53;;
4603;SDS011;2314;48.272;11.562;2023-03-15T09:29:37;132.07;;;6.47;;
4603;SDS011;2314;48.272;11.562;2023-03-15T09:32:04;126.57;;;5.80;;
4603;SDS011;2314;48.272;11.562;2023-03-15T09:34:34;127.30;;;6.20;;
4603;SDS011;2314;48.272;11.562;2023-03-15T09:37:02;129.67;;;6.30;;
4603;SDS011;2314;48.272;11.562;2023-03-15T09:39:29;124.40;;;4.57;;
4603;SDS011;2314;48.272;11.562;2023-03-15T09:41:57;129.43;;;4.83;;
4603;SDS011;2314;48.272;11.562;2023-03-15T09:44:31;129.97;;;5.10;;
4603;SDS011;2314;48.272;11.562;2023-03-15T09:47:08;130.70;;;4.77;;
4603;SDS011;2314;48.272;11.562;2023-03-15T09:49:53;124.77;;;4.70;;
4603;SDS011;2314;48.272;11.562;2023-03-15T09:52:31;129.20;;;4.63;;
4603;SDS011;2314;48.272;11.562;2023-03-15T09:55:04;125.83;;;4.13;;
4603;SDS011;2314;48.272;11.562;2023-03-15T09:57:39;126.47;;;4.23;;
4603;SDS011;2314;48.272;11.562;2023-03-15T10:00:12;124.70;;;4.47;;
4603;SDS011;2314;48.272;11.562;2023-03-15T10:02:44;129.43;;;4.23;;
4603;SDS011;2314;48.272;11.562;2023-03-15T10:05:25;134.30;;;4.50;;
4603;SDS011;2314;48.272;11.562;2023-03-15T10:08:02;126.10;;;4.40;;
4603;SDS011;2314;48.272;11.562;2023-03-15T10:10:35;128.60;;;4.07;;
4603;SDS011;2314;48.272;11.562;2023-03-15T10:13:08;126.87;;;4.80;;
4603;SDS011;2314;48.272;11.562;2023-03-15T10:15:54;125.97;;;4.27;;
4603;SDS011;2314;48.272;11.562;2023-03-15T10:18:33;125.70;;;4.93;;
4603;SDS011;2314;48.272;11.562;2023-03-15T10:21:15;125.53;;;4.80;;
4603;SDS011;2314;48.272;11.562;2023-03-15T10:23:58;128.70;;;4.80;;
4603;SDS011;2314;48.272;11.562;2023-03-15T10:26:30;126.87;;;4.27;;
4603;SDS011;2314;48.272;11.562;2023-03-15T10:29:02;137.40;;;5.30;;
4603;SDS011;2314;48.272;11.562;2023-03-15T10:31:40;124.40;;;4.20;;
4603;SDS011;2314;48.272;11.562;2023-03-15T10:34:11;140.30;;;4.47;;
4603;SDS011;2314;48.272;11.562;2023-03-15T10:36:44;131.73;;;4.00;;
4603;SDS011;2314;48.272;11.562;2023-03-15T10:39:14;134.10;;;3.90;;
4603;SDS011;2314;48.272;11.562;2023-03-15T10:41:43;121.60;;;3.40;;
4603;SDS011;2314;48.272;11.562;2023-03-15T10:44:13;127.57;;;3.90;;
4603;SDS011;2314;48.272;11.562;2023-03-15T10:46:49;123.13;;;3.80;;
4603;SDS011;2314;48.272;11.562;2023-03-15T10:49:36;121.27;;;3.50;;
4603;SDS011;2314;48.272;11.562;2023-03-15T10:52:05;125.70;;;3.97;;
4603;SDS011;2314;48.272;11.562;2023-03-15T10:54:52;122.63;;;3.47;;
4603;SDS011;2314;48.272;11.562;2023-03-15T10:57:27;129.90;;;4.07;;
4603;SDS011;2314;48.272;11.562;2023-03-15T11:00:03;125.77;;;4.07;;
4603;SDS011;2314;48.272;11.562;2023-03-15T11:02:48;123.17;;;4.40;;
4603;SDS011;2314;48.272;11.562;2023-03-15T11:05:17;122.70;;;3.90;;
4603;SDS011;2314;48.272;11.562;2023-03-15T11:07:52;127.47;;;4.03;;
4603;SDS011;2314;48.272;11.562;2023-03-15T11:10:22;122.83;;;3.70;;
4603;SDS011;2314;48.272;11.562;2023-03-15T11:12:58;122.90;;;3.10;;
4603;SDS011;2314;48.272;11.562;2023-03-15T11:15:39;126.10;;;3.67;;
4603;SDS011;2314;48.272;11.562;2023-03-15T11:18:17;124.10;;;3.40;;
4603;SDS011;2314;48.272;11.562;2023-03-15T11:20:51;131.30;;;3.50;;
4603;SDS011;2314;48.272;11.562;2023-03-15T11:23:21;121.77;;;3.40;;
4603;SDS011;2314;48.272;11.562;2023-03-15T11:25:53;123.77;;;3.70;;
4603;SDS011;2314;48.272;11.562;2023-03-15T11:28:21;126.53;;;3.53;;
4603;SDS011;2314;48.272;11.562;2023-03-15T11:30:51;126.70;;;3.30;;
4603;SDS011;2314;48.272;11.562;2023-03-15T11:33:26;125.10;;;3.33;;
4603;SDS011;2314;48.272;11.562;2023-03-15T11:36:07;137.50;;;3.83;;
4603;SDS011;2314;48.272;11.562;2023-03-15T11:38:41;122.60;;;2.97;;
4603;SDS011;2314;48.272;11.562;2023-03-15T11:41:13;122.97;;;3.40;;
4603;SDS011;2314;48.272;11.562;2023-03-15T11:43:59;124.30;;;3.17;;
4603;SDS011;2314;48.272;11.562;2023-03-15T11:46:34;127.27;;;3.50;;
4603;SDS011;2314;48.272;11.562;2023-03-15T11:49:09;119.57;;;2.87;;
4603;SDS011;2314;48.272;11.562;2023-03-15T11:51:41;121.30;;;3.00;;
4603;SDS011;2314;48.272;11.562;2023-03-15T11:54:11;123.10;;;3.07;;
4603;SDS011;2314;48.272;11.562;2023-03-15T11:56:52;124.67;;;3.10;;
4603;SDS011;2314;48.272;11.562;2023-03-15T11:59:24;127.63;;;4.10;;
4603;SDS011;2314;48.272;11.562;2023-03-15T12:01:55;123.10;;;3.20;;
4603;SDS011;2314;48.272;11.562;2023-03-15T12:07:34;122.57;;;3.17;;
4603;SDS011;2314;48.272;11.562;2023-03-15T12:13:15;121.30;;;3.27;;
4603;SDS011;2314;48.272;11.562;2023-03-15T12:15:50;122.43;;;3.00;;
4603;SDS011;2314;48.272;11.562;2023-03-15T12:18:24;120.90;;;2.80;;
4603;SDS011;2314;48.272;11.562;2023-03-15T12:21:10;121.37;;;3.03;;
4603;SDS011;2314;48.272;11.562;2023-03-15T12:23:42;121.60;;;3.13;;
4603;SDS011;2314;48.272;11.562;2023-03-15T12:26:16;122.50;;;3.50;;
4603;SDS011;2314;48.272;11.562;2023-03-15T12:29:14;121.23;;;2.90;;
4603;SDS011;2314;48.272;11.562;2023-03-15T12:31:56;122.67;;;3.10;;
4603;SDS011;2314;48.272;11.562;2023-03-15T12:34:36;120.37;;;2.83;;
4603;SDS011;2314;48.272;11.562;2023-03-15T12:37:12;120.30;;;2.97;;
4603;SDS011;2314;48.272;11.562;2023-03-15T12:39:44;119.87;;;2.73;;
4603;SDS011;2314;48.272;11.562;2023-03-15T12:45:39;122.87;;;3.20;;
4603;SDS011;2314;48.272;11.562;2023-03-15T12:48:22;122.27;;;3.43;;
4603;SDS011;2314;48.272;11.562;2023-03-15T12:51:04;120.77;;;2.80;;
4603;SDS011;2314;48.272;11.562;2023-03-15T12:53:42;124.00;;;2.80;;
4603;SDS011;2314;48.272;11.562;2023-03-15T12:56:20;120.60;;;2.90;;
4603;SDS011;2314;48.272;11.562;2023-03-15T12:59:15;124.27;;;3.03;;
4603;SDS011;2314;48.272;11.562;2023-03-15T13:02:15;123.40;;;3.10;;
4603;SDS011;2314;48.272;11.562;2023-03-15T13:04:57;120.47;;;2.80;;
4603;SDS011;2314;48.272;11.562;2023-03-15T13:07:48;123.77;;;3.20;;
4603;SDS011;2314;48.272;11.562;2023-03-15T13:10:29;120.63;;;2.90;;
4603;SDS011;2314;48.272;11.562;2023-03-15T13:13:12;119.43;;;2.60;;
4603;SDS011;2314;48.272;11.562;2023-03-15T13:16:05;125.03;;;2.93;;
4603;SDS011;2314;48.272;11.562;2023-03-15T13:18:46;122.20;;;3.20;;
4603;SDS011;2314;48.272;11.562;2023-03-15T13:21:24;122.60;;;3.10;;
4603;SDS011;2314;48.272;11.562;2023-03-15T13:23:57;120.27;;;3.07;;
4603;SDS011;2314;48.272;11.562;2023-03-15T13:26:30;121.27;;;3.40;;
4603;SDS011;2314;48.272;11.562;2023-03-15T13:29:09;121.13;;;3.30;;
4603;SDS011;2314;48.272;11.562;2023-03-15T13:31:41;120.70;;;3.17;;
4603;SDS011;2314;48.272;11.562;2023-03-15T13:34:11;121.53;;;2.93;;
4603;SDS011;2314;48.272;11.562;2023-03-15T13:36:42;127.40;;;3.00;;
4603;SDS011;2314;48.272;11.562;2023-03-15T13:39:17;119.93;;;2.73;;
4603;SDS011;2314;48.272;11.562;2023-03-15T13:41:47;121.30;;;3.10;;
4603;SDS011;2314;48.272;11.562;2023-03-15T13:44:15;120.30;;;3.00;;
4603;SDS011;2314;48.272;11.562;2023-03-15T13:46:46;119.77;;;3.00;;
4603;SDS011;2314;48.272;11.562;2023-03-15T13:49:16;119.00;;;2.60;;
4603;SDS011;2314;48.272;11.562;2023-03-15T13:51:44;119.90;;;2.70;;
4603;SDS011;2314;48.272;11.562;2023-03-15T13:54:15;120.50;;;2.90;;
4603;SDS011;2314;48.272;11.562;2023-03-15T13:56:51;120.67;;;3.03;;
4603;SDS011;2314;48.272;11.562;2023-03-15T13:59:26;120.23;;;3.00;;
4603;SDS011;2314;48.272;11.562;2023-03-15T14:01:59;118.40;;;2.60;;
4603;SDS011;2314;48.272;11.562;2023-03-15T14:04:33;119.17;;;2.70;;
4603;SDS011;2314;48.272;11.562;2023-03-15T14:07:06;119.83;;;3.00;;
4603;SDS011;2314;48.272;11.562;2023-03-15T14:12:33;121.53;;;3.27;;
4603;SDS011;2314;48.272;11.562;2023-03-15T14:15:00;122.43;;;2.80;;
4603;SDS011;2314;48.272;11.562;2023-03-15T14:17:28;119.30;;;2.60;;
4603;SDS011;2314;48.272;11.562;2023-03-15T14:20:04;119.47;;;2.80;;
4603;SDS011;2314;48.272;11.562;2023-03-15T14:22:33;120.60;;;2.83;;
4603;SDS011;2314;48.272;11.562;2023-03-15T14:25:00;119.20;;;2.70;;
4603;SDS011;2314;48.272;11.562;2023-03-15T14:27:29;119.50;;;2.80;;
4603;SDS011;2314;48.272;11.562;2023-03-15T14:29:57;120.00;;;2.70;;
4603;SDS011;2314;48.272;11.562;2023-03-15T14:32:27;121.93;;;2.97;;
4603;SDS011;2314;48.272;11.562;2023-03-15T14:34:58;120.90;;;2.90;;
4603;SDS011;2314;48.272;11.562;2023-03-15T14:37:30;124.13;;;2.80;;
4603;SDS011;2314;48.272;11.562;2023-03-15T14:40:04;119.80;;;2.60;;
4603;SDS011;2314;48.272;11.562;2023-03-15T14:42:38;121.90;;;2.70;;
4603;SDS011;2314;48.272;11.562;2023-03-15T14:45:05;119.57;;;2.77;;
4603;SDS011;2314;48.272;11.562;2023-03-15T14:47:34;119.67;;;2.60;;
4603;SDS011;2314;48.272;11.562;2023-03-15T14:50:07;120.40;;;2.90;;
4603;SDS011;2314;48.272;11.562;2023-03-15T14:52:40;120.40;;;2.90;;
4603;SDS011;2314;48.272;11.562;2023-03-15T14:55:08;122.47;;;2.90;;
4603;SDS011;2314;48.272;11.562;2023-03-15T14:57:37;120.63;;;3.00;;
4603;SDS011;2314;48.272;11.562;2023-03-15T15:00:04;123.83;;;3.00;;
4603;SDS011;2314;48.272;11.562;2023-03-15T15:02:36;121.60;;;2.83;;
4603;SDS011;2314;48.272;11.562;2023-03-15T15:05:08;123.77;;;3.13;;